sensor_id;sensor_type;location;lat;lon;timestamp;pressure;altitude;pressure_sealevel;temperature;humidity
72124;BME280;59998;37.126;-8.538;2022-08-19T00:04:10;101145.9;;;25.1;42.2
72124;BME280;59998;37.126;-8.538;2022-08-19T00:08:58;101147.4;;;25.1;42.9
72124;BME280;59998;37.126;-8.538;2022-08-19T00:13:44;101141.5;;;25.1;43.4
72124;BME280;59998;37.126;-8.538;2022-08-19T00:18:31;101136.8;;;25.0;43.9
72124;BME280;59998;37.126;-8.538;2022-08-19T00:23:17;101126.2;;;25.0;44.1
72124;BME280;59998;37.126;-8.538;2022-08-19T00:28:04;101127.0;;;24.9;45.0
72124;BME280;59998;37.126;-8.538;2022-08-19T00:32:50;101121.5;;;24.8;44.9
72124;BME280;59998;37.126;-8.538;2022-08-19T00:37:37;101122.7;;;24.7;46.3
72124;BME280;59998;37.126;-8.538;2022-08-19T00:42:24;101118.4;;;24.5;47.7
72124;BME280;59998;37.126;-8.538;2022-08-19T00:47:10;101122.7;;;24.6;48.0
72124;BME280;59998;37.126;-8.538;2022-08-19T00:52:00;101110.1;;;24.5;48.6
72124;BME280;59998;37.126;-8.538;2022-08-19T00:56:48;101095.2;;;24.5;45.0
72124;BME280;59998;37.126;-8.538;2022-08-19T01:01:35;101087.7;;;24.6;43.4
72124;BME280;59998;37.126;-8.538;2022-08-19T01:06:21;101085.8;;;24.6;45.3
72124;BME280;59998;37.126;-8.538;2022-08-19T01:11:08;101087.3;;;24.5;47.5
72124;BME280;59998;37.126;-8.538;2022-08-19T01:15:56;101097.6;;;24.4;47.6
72124;BME280;59998;37.126;-8.538;2022-08-19T01:20:43;101094.8;;;24.2;47.2
72124;BME280;59998;37.126;-8.538;2022-08-19T01:25:32;101093.2;;;24.2;47.4
72124;BME280;59998;37.126;-8.538;2022-08-19T01:30:23;101097.5;;;24.1;49.1
72124;BME280;59998;37.126;-8.538;2022-08-19T01:35:12;101090.5;;;24.1;49.6
72124;BME280;59998;37.126;-8.538;2022-08-19T01:39:59;101097.5;;;24.0;49.4
72124;BME280;59998;37.126;-8.538;2022-08-19T01:44:45;101086.1;;;24.0;49.9
72124;BME280;59998;37.126;-8.538;2022-08-19T01:49:32;101089.6;;;24.0;49.2
72124;BME280;59998;37.126;-8.538;2022-08-19T01:54:19;101091.2;;;24.0;47.8
72124;BME280;59998;37.126;-8.538;2022-08-19T01:59:10;101086.9;;;24.0;46.9
72124;BME280;59998;37.126;-8.538;2022-08-19T02:03:58;101077.9;;;24.0;46.2
72124;BME280;59998;37.126;-8.538;2022-08-19T02:08:44;101076.3;;;24.1;45.3
72124;BME280;59998;37.126;-8.538;2022-08-19T02:13:31;101071.2;;;24.1;44.4
72124;BME280;59998;37.126;-8.538;2022-08-19T02:18:18;101081.4;;;24.1;43.7
72124;BME280;59998;37.126;-8.538;2022-08-19T02:23:04;101079.1;;;24.1;43.2
72124;BME280;59998;37.126;-8.538;2022-08-19T02:27:51;101066.5;;;24.0;43.9
72124;BME280;59998;37.126;-8.538;2022-08-19T02:32:40;101071.2;;;24.0;43.4
72124;BME280;59998;37.126;-8.538;2022-08-19T02:37:27;101072.0;;;24.1;42.9
72124;BME280;59998;37.126;-8.538;2022-08-19T02:42:13;101068.1;;;24.2;43.2
72124;BME280;59998;37.126;-8.538;2022-08-19T02:46:59;101060.3;;;24.2;42.3
72124;BME280;59998;37.126;-8.538;2022-08-19T02:51:46;101054.0;;;24.2;42.3
72124;BME280;59998;37.126;-8.538;2022-08-19T02:56:34;101056.7;;;24.2;42.4
72124;BME280;59998;37.126;-8.538;2022-08-19T03:01:25;101061.9;;;24.2;42.1
72124;BME280;59998;37.126;-8.538;2022-08-19T03:06:13;101065.4;;;24.3;42.2
72124;BME280;59998;37.126;-8.538;2022-08-19T03:11:00;101055.6;;;24.3;42.3
72124;BME280;59998;37.126;-8.538;2022-08-19T03:15:47;101057.5;;;24.3;42.6
72124;BME280;59998;37.126;-8.538;2022-08-19T03:20:42;101054.4;;;24.3;42.9
72124;BME280;59998;37.126;-8.538;2022-08-19T03:25:28;101053.2;;;24.1;43.6
72124;BME280;59998;37.126;-8.538;2022-08-19T03:30:14;101072.0;;;23.9;44.7
72124;BME280;59998;37.126;-8.538;2022-08-19T03:35:00;101071.1;;;23.7;45.0
72124;BME280;59998;37.126;-8.538;2022-08-19T03:39:47;101071.9;;;23.6;45.0
72124;BME280;59998;37.126;-8.538;2022-08-19T03:44:33;101073.5;;;23.8;47.0
72124;BME280;59998;37.126;-8.538;2022-08-19T03:49:21;101065.5;;;23.5;48.3
72124;BME280;59998;37.126;-8.538;2022-08-19T03:54:10;101071.7;;;23.1;50.3
72124;BME280;59998;37.126;-8.538;2022-08-19T03:58:59;101075.6;;;23.2;50.9
72124;BME280;59998;37.126;-8.538;2022-08-19T04:03:46;101068.2;;;23.3;50.5
72124;BME280;59998;37.126;-8.538;2022-08-19T04:08:33;101079.0;;;22.9;50.8
72124;BME280;59998;37.126;-8.538;2022-08-19T04:13:19;101072.4;;;22.6;50.3
72124;BME280;59998;37.126;-8.538;2022-08-19T04:18:05;101061.7;;;22.3;50.2
72124;BME280;59998;37.126;-8.538;2022-08-19T04:22:52;101064.6;;;22.1;49.8
72124;BME280;59998;37.126;-8.538;2022-08-19T04:27:38;101056.0;;;22.1;48.8
72124;BME280;59998;37.126;-8.538;2022-08-19T04:32:24;101069.0;;;22.2;48.0
72124;BME280;59998;37.126;-8.538;2022-08-19T04:37:10;101071.6;;;22.5;47.7
72124;BME280;59998;37.126;-8.538;2022-08-19T04:41:56;101072.5;;;22.2;48.7
72124;BME280;59998;37.126;-8.538;2022-08-19T04:46:43;101084.3;;;22.3;49.4
72124;BME280;59998;37.126;-8.538;2022-08-19T04:51:29;101089.7;;;22.1;50.3
72124;BME280;59998;37.126;-8.538;2022-08-19T04:56:17;101100.8;;;22.4;50.5
72124;BME280;59998;37.126;-8.538;2022-08-19T05:05:50;101114.2;;;22.4;49.8
72124;BME280;59998;37.126;-8.538;2022-08-19T05:10:37;101108.6;;;22.3;49.1
72124;BME280;59998;37.126;-8.538;2022-08-19T05:15:24;101104.2;;;22.2;49.4
72124;BME280;59998;37.126;-8.538;2022-08-19T05:20:11;101104.2;;;22.2;49.3
72124;BME280;59998;37.126;-8.538;2022-08-19T05:24:57;101107.6;;;22.0;48.4
72124;BME280;59998;37.126;-8.538;2022-08-19T05:29:44;101108.4;;;22.1;48.5
72124;BME280;59998;37.126;-8.538;2022-08-19T05:34:31;101116.9;;;22.0;48.1
72124;BME280;59998;37.126;-8.538;2022-08-19T05:39:19;101133.6;;;21.9;48.9
72124;BME280;59998;37.126;-8.538;2022-08-19T05:44:08;101133.5;;;22.2;48.6
72124;BME280;59998;37.126;-8.538;2022-08-19T05:48:55;101141.7;;;22.2;48.7
72124;BME280;59998;37.126;-8.538;2022-08-19T05:53:42;101137.3;;;22.1;49.6
72124;BME280;59998;37.126;-8.538;2022-08-19T05:58:28;101149.2;;;22.2;49.7
72124;BME280;59998;37.126;-8.538;2022-08-19T06:03:15;101163.7;;;22.3;49.2
72124;BME280;59998;37.126;-8.538;2022-08-19T06:08:01;101170.2;;;22.1;49.4
72124;BME280;59998;37.126;-8.538;2022-08-19T06:12:50;101185.2;;;22.0;49.0
72124;BME280;59998;37.126;-8.538;2022-08-19T06:17:38;101184.3;;;21.9;49.6
72124;BME280;59998;37.126;-8.538;2022-08-19T06:22:24;101187.2;;;22.0;50.0
72124;BME280;59998;37.126;-8.538;2022-08-19T06:27:10;101187.6;;;22.0;49.5
72124;BME280;59998;37.126;-8.538;2022-08-19T06:31:59;101193.9;;;21.7;50.2
72124;BME280;59998;37.126;-8.538;2022-08-19T06:36:47;101197.7;;;21.9;49.6
72124;BME280;59998;37.126;-8.538;2022-08-19T06:41:37;101197.3;;;21.6;49.8
72124;BME280;59998;37.126;-8.538;2022-08-19T06:46:25;101204.4;;;22.0;49.1
72124;BME280;59998;37.126;-8.538;2022-08-19T06:51:13;101194.1;;;21.9;49.6
72124;BME280;59998;37.126;-8.538;2022-08-19T06:55:59;101200.1;;;21.9;49.2
72124;BME280;59998;37.126;-8.538;2022-08-19T07:00:45;101206.2;;;22.2;48.1
72124;BME280;59998;37.126;-8.538;2022-08-19T07:05:34;101206.1;;;22.4;47.5
72124;BME280;59998;37.126;-8.538;2022-08-19T07:10:23;101210.0;;;22.4;47.8
72124;BME280;59998;37.126;-8.538;2022-08-19T07:15:10;101218.3;;;22.5;47.8
72124;BME280;59998;37.126;-8.538;2022-08-19T07:19:59;101217.3;;;22.6;47.1
72124;BME280;59998;37.126;-8.538;2022-08-19T07:24:45;101220.3;;;22.6;46.5
72124;BME280;59998;37.126;-8.538;2022-08-19T07:29:34;101229.9;;;22.7;46.5
72124;BME280;59998;37.126;-8.538;2022-08-19T07:34:20;101235.9;;;22.8;46.5
72124;BME280;59998;37.126;-8.538;2022-08-19T07:39:09;101241.5;;;23.0;46.6
72124;BME280;59998;37.126;-8.538;2022-08-19T07:43:56;101240.0;;;23.0;46.8
72124;BME280;59998;37.126;-8.538;2022-08-19T07:48:44;101251.6;;;22.9;46.7
72124;BME280;59998;37.126;-8.538;2022-08-19T07:53:31;101263.9;;;23.0;46.5
72124;BME280;59998;37.126;-8.538;2022-08-19T07:58:20;101255.7;;;23.1;46.9
72124;BME280;59998;37.126;-8.538;2022-08-19T08:03:09;101252.4;;;23.3;46.2
72124;BME280;59998;37.126;-8.538;2022-08-19T08:07:55;101256.7;;;23.4;45.5
72124;BME280;59998;37.126;-8.538;2022-08-19T08:12:42;101259.2;;;23.5;44.6
72124;BME280;59998;37.126;-8.538;2022-08-19T08:17:30;101260.1;;;23.7;44.4
72124;BME280;59998;37.126;-8.538;2022-08-19T08:22:19;101259.4;;;23.9;42.8
72124;BME280;59998;37.126;-8.538;2022-08-19T08:27:06;101263.0;;;24.1;42.1
72124;BME280;59998;37.126;-8.538;2022-08-19T08:31:53;101269.4;;;24.2;41.6
72124;BME280;59998;37.126;-8.538;2022-08-19T08:36:41;101273.0;;;24.4;41.8
72124;BME280;59998;37.126;-8.538;2022-08-19T08:41:33;101270.3;;;24.6;41.1
72124;BME280;59998;37.126;-8.538;2022-08-19T08:46:25;101273.9;;;25.1;38.9
72124;BME280;59998;37.126;-8.538;2022-08-19T08:51:16;101278.6;;;25.6;37.8
72124;BME280;59998;37.126;-8.538;2022-08-19T08:56:06;101284.8;;;26.0;36.8
72124;BME280;59998;37.126;-8.538;2022-08-19T09:00:55;101301.3;;;26.1;36.5
72124;BME280;59998;37.126;-8.538;2022-08-19T09:05:46;101291.8;;;26.3;36.3
72124;BME280;59998;37.126;-8.538;2022-08-19T09:10:38;101297.7;;;26.4;35.8
72124;BME280;59998;37.126;-8.538;2022-08-19T09:15:28;101296.0;;;26.6;35.9
72124;BME280;59998;37.126;-8.538;2022-08-19T09:20:19;101303.8;;;26.7;35.9
72124;BME280;59998;37.126;-8.538;2022-08-19T09:25:06;101307.7;;;26.8;35.6
72124;BME280;59998;37.126;-8.538;2022-08-19T09:29:54;101308.4;;;26.9;35.4
72124;BME280;59998;37.126;-8.538;2022-08-19T09:34:40;101312.8;;;26.9;35.4
72124;BME280;59998;37.126;-8.538;2022-08-19T09:39:29;101335.2;;;27.0;34.9
72124;BME280;59998;37.126;-8.538;2022-08-19T09:44:15;101333.1;;;27.1;35.2
72124;BME280;59998;37.126;-8.538;2022-08-19T09:49:02;101338.5;;;27.2;34.8
72124;BME280;59998;37.126;-8.538;2022-08-19T09:53:49;101326.7;;;27.3;34.3
72124;BME280;59998;37.126;-8.538;2022-08-19T09:58:36;101329.8;;;27.4;34.5
72124;BME280;59998;37.126;-8.538;2022-08-19T10:03:22;101330.8;;;27.6;33.5
72124;BME280;59998;37.126;-8.538;2022-08-19T10:08:09;101342.6;;;27.6;33.5
72124;BME280;59998;37.126;-8.538;2022-08-19T10:12:56;101327.7;;;27.9;32.5
72124;BME280;59998;37.126;-8.538;2022-08-19T10:17:42;101325.7;;;28.0;32.3
72124;BME280;59998;37.126;-8.538;2022-08-19T10:22:29;101325.8;;;28.2;32.0
72124;BME280;59998;37.126;-8.538;2022-08-19T10:27:16;101337.3;;;28.2;31.2
72124;BME280;59998;37.126;-8.538;2022-08-19T10:32:05;101328.8;;;28.4;30.8
72124;BME280;59998;37.126;-8.538;2022-08-19T10:36:51;101329.8;;;28.5;30.9
72124;BME280;59998;37.126;-8.538;2022-08-19T10:41:38;101324.3;;;28.8;30.3
72124;BME280;59998;37.126;-8.538;2022-08-19T10:46:26;101319.6;;;28.7;30.2
72124;BME280;59998;37.126;-8.538;2022-08-19T10:51:13;101321.6;;;28.8;29.3
72124;BME280;59998;37.126;-8.538;2022-08-19T10:56:00;101331.0;;;28.8;29.9
72124;BME280;59998;37.126;-8.538;2022-08-19T11:00:51;101326.9;;;28.9;29.8
72124;BME280;59998;37.126;-8.538;2022-08-19T11:05:37;101318.5;;;29.0;29.2
72124;BME280;59998;37.126;-8.538;2022-08-19T11:10:24;101315.3;;;29.0;29.2
72124;BME280;59998;37.126;-8.538;2022-08-19T11:15:10;101321.3;;;29.2;29.2
72124;BME280;59998;37.126;-8.538;2022-08-19T11:19:57;101309.7;;;29.2;29.1
72124;BME280;59998;37.126;-8.538;2022-08-19T11:24:44;101315.2;;;29.3;29.3
72124;BME280;59998;37.126;-8.538;2022-08-19T11:29:32;101302.0;;;29.4;28.9
72124;BME280;59998;37.126;-8.538;2022-08-19T11:34:22;101306.4;;;29.6;28.9
72124;BME280;59998;37.126;-8.538;2022-08-19T11:39:07;101298.4;;;29.7;29.0
72124;BME280;59998;37.126;-8.538;2022-08-19T11:43:54;101302.1;;;29.5;28.4
72124;BME280;59998;37.126;-8.538;2022-08-19T11:48:41;101301.3;;;29.6;28.2
72124;BME280;59998;37.126;-8.538;2022-08-19T11:53:29;101295.8;;;29.8;27.8
72124;BME280;59998;37.126;-8.538;2022-08-19T11:58:17;101287.5;;;30.2;27.3
72124;BME280;59998;37.126;-8.538;2022-08-19T12:03:03;101276.8;;;30.5;26.1
72124;BME280;59998;37.126;-8.538;2022-08-19T12:07:49;101269.6;;;30.9;24.5
72124;BME280;59998;37.126;-8.538;2022-08-19T12:12:36;101276.5;;;31.0;25.9
72124;BME280;59998;37.126;-8.538;2022-08-19T12:17:22;101275.5;;;30.8;25.8
72124;BME280;59998;37.126;-8.538;2022-08-19T12:22:09;101271.7;;;30.5;25.7
72124;BME280;59998;37.126;-8.538;2022-08-19T12:26:55;101268.5;;;30.3;26.4
72124;BME280;59998;37.126;-8.538;2022-08-19T12:31:41;101275.8;;;30.1;27.3
72124;BME280;59998;37.126;-8.538;2022-08-19T12:36:28;101271.0;;;30.1;27.9
72124;BME280;59998;37.126;-8.538;2022-08-19T12:41:16;101274.5;;;29.9;28.8
72124;BME280;59998;37.126;-8.538;2022-08-19T12:46:03;101273.6;;;29.8;29.8
72124;BME280;59998;37.126;-8.538;2022-08-19T12:50:50;101277.4;;;29.6;30.5
72124;BME280;59998;37.126;-8.538;2022-08-19T12:55:38;101275.8;;;29.7;30.9
72124;BME280;59998;37.126;-8.538;2022-08-19T13:00:25;101292.3;;;29.5;31.1
72124;BME280;59998;37.126;-8.538;2022-08-19T13:05:14;101264.5;;;29.3;31.8
72124;BME280;59998;37.126;-8.538;2022-08-19T13:10:01;101268.0;;;29.1;33.0
72124;BME280;59998;37.126;-8.538;2022-08-19T13:14:47;101267.9;;;29.0;33.2
72124;BME280;59998;37.126;-8.538;2022-08-19T13:19:35;101268.8;;;28.9;33.6
72124;BME280;59998;37.126;-8.538;2022-08-19T13:24:22;101260.2;;;28.8;33.0
72124;BME280;59998;37.126;-8.538;2022-08-19T13:29:08;101253.0;;;28.6;32.1
72124;BME280;59998;37.126;-8.538;2022-08-19T13:33:54;101251.8;;;28.6;32.7
72124;BME280;59998;37.126;-8.538;2022-08-19T13:38:41;101254.5;;;28.7;32.2
72124;BME280;59998;37.126;-8.538;2022-08-19T13:43:27;101247.0;;;28.6;32.3
72124;BME280;59998;37.126;-8.538;2022-08-19T13:48:16;101243.4;;;28.7;32.4
72124;BME280;59998;37.126;-8.538;2022-08-19T13:53:03;101235.2;;;28.6;32.0
72124;BME280;59998;37.126;-8.538;2022-08-19T13:57:51;101217.7;;;28.9;30.5
72124;BME280;59998;37.126;-8.538;2022-08-19T14:02:38;101217.8;;;29.1;30.0
72124;BME280;59998;37.126;-8.538;2022-08-19T14:07:25;101211.2;;;29.3;30.0
72124;BME280;59998;37.126;-8.538;2022-08-19T14:12:11;101208.3;;;29.4;29.4
72124;BME280;59998;37.126;-8.538;2022-08-19T14:16:58;101194.9;;;29.3;29.3
72124;BME280;59998;37.126;-8.538;2022-08-19T14:21:46;101192.1;;;29.3;29.8
72124;BME280;59998;37.126;-8.538;2022-08-19T14:26:33;101189.5;;;29.5;29.8
72124;BME280;59998;37.126;-8.538;2022-08-19T14:31:19;101183.3;;;29.6;29.3
72124;BME280;59998;37.126;-8.538;2022-08-19T14:36:06;101178.4;;;29.7;29.0
72124;BME280;59998;37.126;-8.538;2022-08-19T14:40:52;101168.4;;;29.8;29.3
72124;BME280;59998;37.126;-8.538;2022-08-19T14:45:39;101166.0;;;29.8;29.1
72124;BME280;59998;37.126;-8.538;2022-08-19T14:50:29;101157.0;;;29.7;29.2
72124;BME280;59998;37.126;-8.538;2022-08-19T14:55:16;101166.0;;;29.7;29.9
72124;BME280;59998;37.126;-8.538;2022-08-19T15:00:03;101160.7;;;29.8;29.9
72124;BME280;59998;37.126;-8.538;2022-08-19T15:04:50;101165.4;;;29.5;30.1
72124;BME280;59998;37.126;-8.538;2022-08-19T15:09:36;101168.2;;;29.2;31.2
72124;BME280;59998;37.126;-8.538;2022-08-19T15:14:22;101162.2;;;29.3;30.9
72124;BME280;59998;37.126;-8.538;2022-08-19T15:19:09;101158.9;;;29.4;31.1
72124;BME280;59998;37.126;-8.538;2022-08-19T15:23:56;101168.8;;;29.3;30.0
72124;BME280;59998;37.126;-8.538;2022-08-19T15:28:43;101171.2;;;29.5;29.7
72124;BME280;59998;37.126;-8.538;2022-08-19T15:33:30;101178.7;;;29.9;29.3
72124;BME280;59998;37.126;-8.538;2022-08-19T15:38:19;101182.5;;;30.2;27.9
72124;BME280;59998;37.126;-8.538;2022-08-19T15:43:06;101178.6;;;30.5;28.3
72124;BME280;59998;37.126;-8.538;2022-08-19T15:47:54;101180.4;;;30.7;27.5
72124;BME280;59998;37.126;-8.538;2022-08-19T15:52:46;101177.9;;;30.9;27.0
72124;BME280;59998;37.126;-8.538;2022-08-19T15:57:33;101182.3;;;30.9;26.6
72124;BME280;59998;37.126;-8.538;2022-08-19T16:02:22;101173.2;;;31.2;26.8
72124;BME280;59998;37.126;-8.538;2022-08-19T16:07:08;101175.8;;;31.4;26.6
72124;BME280;59998;37.126;-8.538;2022-08-19T16:11:56;101166.4;;;31.7;26.3
72124;BME280;59998;37.126;-8.538;2022-08-19T16:16:44;101158.9;;;31.8;26.5
72124;BME280;59998;37.126;-8.538;2022-08-19T16:21:32;101163.3;;;31.9;26.2
72124;BME280;59998;37.126;-8.538;2022-08-19T16:26:19;101167.6;;;31.8;26.6
72124;BME280;59998;37.126;-8.538;2022-08-19T16:31:06;101166.4;;;31.7;26.6
72124;BME280;59998;37.126;-8.538;2022-08-19T16:35:52;101178.1;;;31.9;26.4
72124;BME280;59998;37.126;-8.538;2022-08-19T16:40:40;101167.8;;;31.9;26.5
72124;BME280;59998;37.126;-8.538;2022-08-19T16:45:27;101166.2;;;32.2;26.3
72124;BME280;59998;37.126;-8.538;2022-08-19T16:50:13;101161.9;;;32.4;25.8
72124;BME280;59998;37.126;-8.538;2022-08-19T16:55:02;101168.9;;;32.4;26.0
72124;BME280;59998;37.126;-8.538;2022-08-19T16:59:50;101177.8;;;32.6;26.4
72124;BME280;59998;37.126;-8.538;2022-08-19T17:04:36;101170.8;;;32.9;26.3
72124;BME280;59998;37.126;-8.538;2022-08-19T17:09:22;101164.6;;;33.1;26.6
72124;BME280;59998;37.126;-8.538;2022-08-19T17:14:09;101165.0;;;32.9;27.2
72124;BME280;59998;37.126;-8.538;2022-08-19T17:19:00;101161.1;;;33.1;28.1
72124;BME280;59998;37.126;-8.538;2022-08-19T17:23:47;101158.3;;;33.5;28.3
72124;BME280;59998;37.126;-8.538;2022-08-19T17:28:34;101155.8;;;33.8;28.6
72124;BME280;59998;37.126;-8.538;2022-08-19T17:33:20;101159.5;;;33.8;28.9
72124;BME280;59998;37.126;-8.538;2022-08-19T17:38:08;101153.8;;;34.1;28.3
72124;BME280;59998;37.126;-8.538;2022-08-19T17:42:55;101151.9;;;34.3;28.0
72124;BME280;59998;37.126;-8.538;2022-08-19T17:47:44;101145.7;;;34.1;28.5
72124;BME280;59998;37.126;-8.538;2022-08-19T17:52:30;101147.4;;;34.4;27.3
72124;BME280;59998;37.126;-8.538;2022-08-19T17:57:17;101140.3;;;34.7;28.5
72124;BME280;59998;37.126;-8.538;2022-08-19T18:02:03;101139.6;;;34.8;27.3
72124;BME280;59998;37.126;-8.538;2022-08-19T18:06:50;101146.1;;;34.9;26.5
72124;BME280;59998;37.126;-8.538;2022-08-19T18:11:37;101148.1;;;35.0;26.9
72124;BME280;59998;37.126;-8.538;2022-08-19T18:16:23;101150.5;;;35.2;26.2
72124;BME280;59998;37.126;-8.538;2022-08-19T18:21:12;101147.7;;;34.8;25.8
72124;BME280;59998;37.126;-8.538;2022-08-19T18:25:58;101145.5;;;34.8;26.4
72124;BME280;59998;37.126;-8.538;2022-08-19T18:30:45;101156.1;;;34.7;26.7
72124;BME280;59998;37.126;-8.538;2022-08-19T18:35:31;101153.2;;;34.7;25.7
72124;BME280;59998;37.126;-8.538;2022-08-19T18:40:19;101152.1;;;34.5;26.4
72124;BME280;59998;37.126;-8.538;2022-08-19T18:45:06;101153.3;;;34.3;26.4
72124;BME280;59998;37.126;-8.538;2022-08-19T18:49:54;101155.0;;;34.1;26.5
72124;BME280;59998;37.126;-8.538;2022-08-19T18:54:40;101154.6;;;33.9;26.9
72124;BME280;59998;37.126;-8.538;2022-08-19T18:59:27;101150.3;;;33.4;27.3
72124;BME280;59998;37.126;-8.538;2022-08-19T19:04:13;101156.6;;;32.8;28.4
72124;BME280;59998;37.126;-8.538;2022-08-19T19:08:59;101155.0;;;32.2;29.2
72124;BME280;59998;37.126;-8.538;2022-08-19T19:13:46;101166.0;;;31.8;29.8
72124;BME280;59998;37.126;-8.538;2022-08-19T19:18:32;101171.0;;;31.3;30.5
72124;BME280;59998;37.126;-8.538;2022-08-19T19:23:18;101163.0;;;31.0;30.8
72124;BME280;59998;37.126;-8.538;2022-08-19T19:28:05;101181.8;;;30.8;31.0
72124;BME280;59998;37.126;-8.538;2022-08-19T19:32:51;101176.8;;;30.4;31.6
72124;BME280;59998;37.126;-8.538;2022-08-19T19:37:38;101180.7;;;30.1;31.8
72124;BME280;59998;37.126;-8.538;2022-08-19T19:42:25;101188.8;;;29.8;31.9
72124;BME280;59998;37.126;-8.538;2022-08-19T19:47:13;101178.7;;;29.7;32.7
72124;BME280;59998;37.126;-8.538;2022-08-19T19:52:02;101181.2;;;29.6;32.5
72124;BME280;59998;37.126;-8.538;2022-08-19T19:56:48;101197.9;;;29.4;32.9
72124;BME280;59998;37.126;-8.538;2022-08-19T20:01:37;101199.9;;;29.2;33.4
72124;BME280;59998;37.126;-8.538;2022-08-19T20:06:23;101199.5;;;29.0;33.6
72124;BME280;59998;37.126;-8.538;2022-08-19T20:11:09;101202.2;;;28.8;34.0
72124;BME280;59998;37.126;-8.538;2022-08-19T20:15:56;101210.7;;;28.6;34.3
72124;BME280;59998;37.126;-8.538;2022-08-19T20:20:43;101209.4;;;28.4;34.7
72124;BME280;59998;37.126;-8.538;2022-08-19T20:25:29;101217.5;;;28.3;35.2
72124;BME280;59998;37.126;-8.538;2022-08-19T20:30:18;101228.0;;;28.1;35.8
72124;BME280;59998;37.126;-8.538;2022-08-19T20:35:04;101228.0;;;28.1;35.3
72124;BME280;59998;37.126;-8.538;2022-08-19T20:39:51;101238.4;;;28.0;35.5
72124;BME280;59998;37.126;-8.538;2022-08-19T20:44:37;101232.7;;;27.8;35.9
72124;BME280;59998;37.126;-8.538;2022-08-19T20:49:23;101238.8;;;27.7;36.5
72124;BME280;59998;37.126;-8.538;2022-08-19T20:54:10;101247.5;;;27.6;36.1
72124;BME280;59998;37.126;-8.538;2022-08-19T20:58:56;101254.7;;;27.5;36.2
72124;BME280;59998;37.126;-8.538;2022-08-19T21:03:42;101250.4;;;27.5;36.6
72124;BME280;59998;37.126;-8.538;2022-08-19T21:08:31;101267.4;;;27.4;36.5
72124;BME280;59998;37.126;-8.538;2022-08-19T21:13:18;101269.8;;;27.4;36.9
72124;BME280;59998;37.126;-8.538;2022-08-19T21:18:05;101282.5;;;27.3;36.7
72124;BME280;59998;37.126;-8.538;2022-08-19T21:22:52;101286.9;;;27.3;36.9
72124;BME280;59998;37.126;-8.538;2022-08-19T21:27:41;101295.8;;;27.4;36.7
72124;BME280;59998;37.126;-8.538;2022-08-19T21:32:27;101295.0;;;27.4;36.5
72124;BME280;59998;37.126;-8.538;2022-08-19T21:37:14;101289.9;;;27.4;36.6
72124;BME280;59998;37.126;-8.538;2022-08-19T21:42:00;101292.2;;;27.5;36.3
72124;BME280;59998;37.126;-8.538;2022-08-19T21:46:47;101298.1;;;27.5;36.3
72124;BME280;59998;37.126;-8.538;2022-08-19T21:51:33;101301.3;;;27.4;36.5
72124;BME280;59998;37.126;-8.538;2022-08-19T21:56:20;101294.2;;;27.4;36.8
72124;BME280;59998;37.126;-8.538;2022-08-19T22:01:06;101301.8;;;27.4;36.3
72124;BME280;59998;37.126;-8.538;2022-08-19T22:05:53;101294.0;;;27.3;36.7
72124;BME280;59998;37.126;-8.538;2022-08-19T22:10:42;101288.4;;;27.3;36.9
72124;BME280;59998;37.126;-8.538;2022-08-19T22:15:29;101297.4;;;27.4;37.0
72124;BME280;59998;37.126;-8.538;2022-08-19T22:20:21;101301.3;;;27.4;36.6
72124;BME280;59998;37.126;-8.538;2022-08-19T22:25:11;101301.0;;;27.4;36.5
72124;BME280;59998;37.126;-8.538;2022-08-19T22:29:58;101303.7;;;27.4;36.7
72124;BME280;59998;37.126;-8.538;2022-08-19T22:34:44;101298.7;;;27.2;38.3
72124;BME280;59998;37.126;-8.538;2022-08-19T22:39:31;101292.5;;;27.2;39.1
72124;BME280;59998;37.126;-8.538;2022-08-19T22:44:17;101290.3;;;26.9;39.7
72124;BME280;59998;37.126;-8.538;2022-08-19T22:49:04;101280.5;;;26.8;40.0
72124;BME280;59998;37.126;-8.538;2022-08-19T22:53:50;101284.8;;;26.8;39.4
72124;BME280;59998;37.126;-8.538;2022-08-19T22:58:37;101278.9;;;26.9;39.9
72124;BME280;59998;37.126;-8.538;2022-08-19T23:03:24;101273.4;;;26.9;40.0
72124;BME280;59998;37.126;-8.538;2022-08-19T23:08:10;101276.9;;;26.8;40.3
72124;BME280;59998;37.126;-8.538;2022-08-19T23:12:58;101276.5;;;26.8;40.5
72124;BME280;59998;37.126;-8.538;2022-08-19T23:17:44;101282.0;;;26.9;40.4
72124;BME280;59998;37.126;-8.538;2022-08-19T23:22:31;101269.8;;;26.9;39.7
72124;BME280;59998;37.126;-8.538;2022-08-19T23:27:17;101281.7;;;26.9;39.3
72124;BME280;59998;37.126;-8.538;2022-08-19T23:32:03;101273.8;;;26.8;39.5
72124;BME280;59998;37.126;-8.538;2022-08-19T23:36:49;101266.8;;;26.7;40.0
72124;BME280;59998;37.126;-8.538;2022-08-19T23:41:36;101264.5;;;26.6;40.6
72124;BME280;59998;37.126;-8.538;2022-08-19T23:46:22;101259.0;;;26.5;40.6
72124;BME280;59998;37.126;-8.538;2022-08-19T23:51:10;101256.3;;;26.4;41.4
72124;BME280;59998;37.126;-8.538;2022-08-19T23:55:58;101252.0;;;26.3;44.0
